FDX9900 KOMA-KLBF
Flight info
| Callsign | FDX9900 |
|---|---|
| Flight time | 0h 47m |
| Altitude | 30000 |
| Route | OBH |
| Aircraft | A306/H-SDE3FGHIRWY/LB1 |
Departure
| Time | 2026-05-04 14:02 |
|---|---|
| Airport | Eppley Airfield (KOMA) |
Arrival
| Time | 2026-05-04 14:50 |
|---|---|
| Airport | North Platte Regional Airport Lee Bird Field (KLBF) |
| Time | Latitude | Longitude | Altitude | Speed | Heading |
|---|---|---|---|---|---|
| 2026-05-04 13:42 | 41.30873 | -95.90741 | 999 ft | 0 kts | 143° |
| 2026-05-04 13:49 | 41.30876 | -95.90748 | 1002 ft | 4 kts | 173° |
| 2026-05-04 13:49 | 41.30888 | -95.90758 | 1000 ft | 4 kts | 128° |
| 2026-05-04 13:49 | 41.30897 | -95.90786 | 999 ft | 4 kts | 82° |
| 2026-05-04 13:50 | 41.30890 | -95.90813 | 999 ft | 1 kts | 55° |
| 2026-05-04 13:53 | 41.30895 | -95.90803 | 1005 ft | 0 kts | 56° |
| 2026-05-04 13:54 | 41.30909 | -95.90777 | 1001 ft | 9 kts | 56° |
| 2026-05-04 13:54 | 41.30981 | -95.90530 | 1001 ft | 13 kts | 124° |
| 2026-05-04 13:55 | 41.30974 | -95.90418 | 998 ft | 12 kts | 97° |
| 2026-05-04 13:55 | 41.30834 | -95.90262 | 998 ft | 22 kts | 144° |
| 2026-05-04 13:55 | 41.30694 | -95.90133 | 1000 ft | 24 kts | 144° |
| 2026-05-04 13:56 | 41.30560 | -95.90007 | 995 ft | 23 kts | 145° |
| 2026-05-04 13:56 | 41.30439 | -95.89891 | 1001 ft | 20 kts | 143° |
| 2026-05-04 13:56 | 41.30215 | -95.89677 | 1001 ft | 19 kts | 143° |
| 2026-05-04 13:57 | 41.30104 | -95.89568 | 998 ft | 20 kts | 145° |
| 2026-05-04 13:57 | 41.29993 | -95.89463 | 996 ft | 19 kts | 146° |
| 2026-05-04 13:58 | 41.29698 | -95.89170 | 996 ft | 12 kts | 148° |
| 2026-05-04 13:58 | 41.29575 | -95.89068 | 1001 ft | 11 kts | 148° |
| 2026-05-04 13:58 | 41.29495 | -95.88996 | 999 ft | 18 kts | 143° |
| 2026-05-04 13:59 | 41.29368 | -95.88878 | 999 ft | 24 kts | 146° |
| 2026-05-04 13:59 | 41.29254 | -95.88763 | 997 ft | 15 kts | 141° |
| 2026-05-04 13:59 | 41.29348 | -95.88467 | 994 ft | 22 kts | 54° |
| 2026-05-04 14:00 | 41.29435 | -95.88310 | 998 ft | 20 kts | 50° |
| 2026-05-04 14:00 | 41.29539 | -95.88323 | 1001 ft | 0 kts | 325° |
| 2026-05-04 14:02 | 41.29544 | -95.88327 | 999 ft | 13 kts | 325° |
| 2026-05-04 14:02 | 41.29872 | -95.88637 | 1004 ft | 100 kts | 324° |
| 2026-05-04 14:02 | 41.30670 | -95.89395 | 1011 ft | 180 kts | 323° |
| 2026-05-04 14:02 | 41.31826 | -95.90501 | 1702 ft | 220 kts | 323° |
| 2026-05-04 14:03 | 41.33144 | -95.91796 | 2702 ft | 247 kts | 319° |
| 2026-05-04 14:03 | 41.34544 | -95.93187 | 3672 ft | 255 kts | 319° |
| 2026-05-04 14:03 | 41.35821 | -95.94782 | 4840 ft | 250 kts | 306° |
| 2026-05-04 14:03 | 41.36660 | -95.96775 | 6032 ft | 247 kts | 289° |
| 2026-05-04 14:04 | 41.37204 | -96.01320 | 8219 ft | 254 kts | 275° |
| 2026-05-04 14:04 | 41.37249 | -96.03702 | 9283 ft | 260 kts | 272° |
| 2026-05-04 14:04 | 41.37237 | -96.06133 | 10247 ft | 265 kts | 271° |
| 2026-05-04 14:05 | 41.37198 | -96.11121 | 12111 ft | 274 kts | 271° |
| 2026-05-04 14:05 | 41.37199 | -96.13679 | 13014 ft | 279 kts | 272° |
| 2026-05-04 14:05 | 41.37220 | -96.16276 | 13856 ft | 283 kts | 272° |
| 2026-05-04 14:06 | 41.37244 | -96.18908 | 14675 ft | 285 kts | 272° |
| 2026-05-04 14:06 | 41.37270 | -96.21556 | 15487 ft | 287 kts | 272° |
| 2026-05-04 14:06 | 41.37297 | -96.24189 | 16289 ft | 289 kts | 272° |
| 2026-05-04 14:06 | 41.37324 | -96.26879 | 17105 ft | 292 kts | 272° |
| 2026-05-04 14:07 | 41.37351 | -96.29587 | 17904 ft | 294 kts | 272° |
| 2026-05-04 14:07 | 41.37379 | -96.32325 | 18567 ft | 298 kts | 272° |
| 2026-05-04 14:07 | 41.37406 | -96.35104 | 19184 ft | 302 kts | 272° |
| 2026-05-04 14:07 | 41.37434 | -96.37918 | 19798 ft | 307 kts | 272° |
| 2026-05-04 14:08 | 41.37461 | -96.40782 | 20415 ft | 311 kts | 272° |
| 2026-05-04 14:08 | 41.37485 | -96.43677 | 21035 ft | 315 kts | 272° |
| 2026-05-04 14:08 | 41.37510 | -96.46608 | 21639 ft | 319 kts | 272° |
| 2026-05-04 14:08 | 41.37535 | -96.49562 | 21953 ft | 320 kts | 272° |
| 2026-05-04 14:09 | 41.37581 | -96.55515 | 22005 ft | 322 kts | 272° |
| 2026-05-04 14:09 | 41.37603 | -96.58497 | 22006 ft | 323 kts | 272° |
| 2026-05-04 14:10 | 41.37646 | -96.64483 | 22001 ft | 323 kts | 272° |
| 2026-05-04 14:10 | 41.37667 | -96.67466 | 22003 ft | 323 kts | 272° |
| 2026-05-04 14:10 | 41.37686 | -96.70459 | 21974 ft | 323 kts | 272° |
| 2026-05-04 14:10 | 41.37705 | -96.73447 | 21761 ft | 323 kts | 272° |
| 2026-05-04 14:11 | 41.37723 | -96.76428 | 21719 ft | 322 kts | 272° |
| 2026-05-04 14:11 | 41.37757 | -96.82379 | 21717 ft | 321 kts | 272° |
| 2026-05-04 14:11 | 41.37773 | -96.85347 | 21718 ft | 321 kts | 272° |
| 2026-05-04 14:12 | 41.37788 | -96.88327 | 21711 ft | 321 kts | 272° |
| 2026-05-04 14:12 | 41.37803 | -96.91299 | 21716 ft | 321 kts | 272° |
| 2026-05-04 14:12 | 41.37826 | -96.96247 | 21717 ft | 321 kts | 272° |
| 2026-05-04 14:13 | 41.37839 | -96.99216 | 21717 ft | 321 kts | 272° |
| 2026-05-04 14:13 | 41.37852 | -97.02198 | 21715 ft | 321 kts | 271° |
| 2026-05-04 14:13 | 41.37863 | -97.05171 | 21723 ft | 321 kts | 271° |
| 2026-05-04 14:13 | 41.37872 | -97.08150 | 21723 ft | 322 kts | 271° |
| 2026-05-04 14:14 | 41.37880 | -97.11122 | 21725 ft | 322 kts | 271° |
| 2026-05-04 14:14 | 41.37895 | -97.17074 | 21728 ft | 322 kts | 271° |
| 2026-05-04 14:14 | 41.37902 | -97.20056 | 21727 ft | 322 kts | 271° |
| 2026-05-04 14:15 | 41.37913 | -97.26005 | 21731 ft | 322 kts | 271° |
| 2026-05-04 14:15 | 41.37922 | -97.31954 | 21729 ft | 321 kts | 271° |
| 2026-05-04 14:16 | 41.37927 | -97.37901 | 21733 ft | 321 kts | 271° |
| 2026-05-04 14:16 | 41.37929 | -97.40877 | 21727 ft | 321 kts | 271° |
| 2026-05-04 14:17 | 41.37929 | -97.46817 | 21733 ft | 321 kts | 271° |
| 2026-05-04 14:17 | 41.37930 | -97.49792 | 21728 ft | 321 kts | 271° |
| 2026-05-04 14:17 | 41.37926 | -97.55726 | 21728 ft | 320 kts | 271° |
| 2026-05-04 14:18 | 41.37923 | -97.58697 | 21729 ft | 320 kts | 271° |
| 2026-05-04 14:18 | 41.37913 | -97.64623 | 21724 ft | 320 kts | 271° |
| 2026-05-04 14:19 | 41.37900 | -97.70555 | 21725 ft | 320 kts | 271° |
| 2026-05-04 14:19 | 41.37893 | -97.73513 | 21722 ft | 320 kts | 271° |
| 2026-05-04 14:19 | 41.37886 | -97.76482 | 21721 ft | 320 kts | 271° |
| 2026-05-04 14:19 | 41.37877 | -97.79450 | 21719 ft | 320 kts | 271° |
| 2026-05-04 14:20 | 41.37868 | -97.82414 | 21717 ft | 320 kts | 271° |
| 2026-05-04 14:20 | 41.37858 | -97.85378 | 21714 ft | 320 kts | 270° |
| 2026-05-04 14:20 | 41.37848 | -97.88340 | 21718 ft | 320 kts | 270° |
| 2026-05-04 14:21 | 41.37826 | -97.94271 | 21711 ft | 320 kts | 270° |
| 2026-05-04 14:21 | 41.37813 | -97.97234 | 21712 ft | 320 kts | 270° |
| 2026-05-04 14:21 | 41.37798 | -98.00193 | 21719 ft | 320 kts | 270° |
| 2026-05-04 14:21 | 41.37783 | -98.03154 | 21721 ft | 320 kts | 270° |
| 2026-05-04 14:22 | 41.37767 | -98.06115 | 21718 ft | 320 kts | 270° |
| 2026-05-04 14:22 | 41.37751 | -98.09079 | 21713 ft | 320 kts | 270° |
| 2026-05-04 14:22 | 41.37734 | -98.12005 | 21719 ft | 320 kts | 270° |
| 2026-05-04 14:22 | 41.37716 | -98.15002 | 21715 ft | 320 kts | 270° |
| 2026-05-04 14:23 | 41.37679 | -98.20926 | 21719 ft | 320 kts | 270° |
| 2026-05-04 14:23 | 41.37662 | -98.23853 | 21717 ft | 320 kts | 270° |
| 2026-05-04 14:23 | 41.37644 | -98.26813 | 21712 ft | 320 kts | 270° |
| 2026-05-04 14:24 | 41.37623 | -98.29768 | 21723 ft | 320 kts | 270° |
| 2026-05-04 14:24 | 41.37600 | -98.32732 | 21713 ft | 320 kts | 270° |
| 2026-05-04 14:24 | 41.37374 | -98.35710 | 21693 ft | 321 kts | 261° |
| 2026-05-04 14:24 | 41.36914 | -98.38589 | 21238 ft | 323 kts | 258° |
| 2026-05-04 14:25 | 41.36386 | -98.41474 | 20869 ft | 319 kts | 258° |
| 2026-05-04 14:25 | 41.35310 | -98.47141 | 20121 ft | 313 kts | 258° |
| 2026-05-04 14:25 | 41.34766 | -98.49979 | 19728 ft | 311 kts | 258° |
| 2026-05-04 14:26 | 41.34232 | -98.52760 | 19341 ft | 309 kts | 258° |
| 2026-05-04 14:26 | 41.33700 | -98.55522 | 18961 ft | 307 kts | 258° |
| 2026-05-04 14:26 | 41.33178 | -98.58227 | 18578 ft | 305 kts | 258° |
| 2026-05-04 14:26 | 41.32644 | -98.60991 | 18201 ft | 303 kts | 258° |
| 2026-05-04 14:27 | 41.32127 | -98.63661 | 17822 ft | 301 kts | 258° |
| 2026-05-04 14:27 | 41.31606 | -98.66351 | 17383 ft | 300 kts | 258° |
| 2026-05-04 14:27 | 41.31084 | -98.69033 | 16958 ft | 299 kts | 258° |
| 2026-05-04 14:27 | 41.30566 | -98.71699 | 16536 ft | 297 kts | 258° |
| 2026-05-04 14:28 | 41.30049 | -98.74351 | 16128 ft | 295 kts | 258° |
| 2026-05-04 14:28 | 41.29537 | -98.76981 | 15716 ft | 294 kts | 258° |
| 2026-05-04 14:28 | 41.29024 | -98.79608 | 15313 ft | 292 kts | 258° |
| 2026-05-04 14:28 | 41.28514 | -98.82216 | 14911 ft | 291 kts | 259° |
| 2026-05-04 14:29 | 41.27500 | -98.87403 | 14116 ft | 288 kts | 259° |
| 2026-05-04 14:29 | 41.26492 | -98.92537 | 13315 ft | 286 kts | 259° |
| 2026-05-04 14:30 | 41.25990 | -98.95087 | 12888 ft | 284 kts | 259° |
| 2026-05-04 14:30 | 41.25490 | -98.97622 | 12477 ft | 283 kts | 259° |
| 2026-05-04 14:30 | 41.24494 | -99.02657 | 11650 ft | 281 kts | 259° |
| 2026-05-04 14:31 | 41.23998 | -99.05164 | 11237 ft | 280 kts | 258° |
| 2026-05-04 14:31 | 41.23012 | -99.10140 | 10462 ft | 278 kts | 258° |
| 2026-05-04 14:32 | 41.22032 | -99.15090 | 9707 ft | 276 kts | 258° |
| 2026-05-04 14:32 | 41.21543 | -99.17552 | 9266 ft | 276 kts | 258° |
| 2026-05-04 14:32 | 41.21053 | -99.20015 | 8851 ft | 275 kts | 258° |
| 2026-05-04 14:32 | 41.20565 | -99.22467 | 8471 ft | 274 kts | 258° |
| 2026-05-04 14:33 | 41.20080 | -99.24898 | 8053 ft | 272 kts | 258° |
| 2026-05-04 14:33 | 41.19594 | -99.27323 | 7661 ft | 271 kts | 258° |
| 2026-05-04 14:33 | 41.19110 | -99.29745 | 7261 ft | 271 kts | 258° |
| 2026-05-04 14:33 | 41.18622 | -99.32157 | 6879 ft | 270 kts | 258° |
| 2026-05-04 14:34 | 41.18138 | -99.34553 | 6515 ft | 269 kts | 258° |
| 2026-05-04 14:34 | 41.17655 | -99.36947 | 6139 ft | 268 kts | 258° |
| 2026-05-04 14:34 | 41.17173 | -99.39330 | 5801 ft | 267 kts | 258° |
| 2026-05-04 14:34 | 41.16689 | -99.41714 | 5384 ft | 267 kts | 259° |
| 2026-05-04 14:35 | 41.16212 | -99.44088 | 5023 ft | 266 kts | 258° |
| 2026-05-04 14:35 | 41.15725 | -99.46453 | 4639 ft | 265 kts | 259° |
| 2026-05-04 14:35 | 41.15253 | -99.48814 | 4611 ft | 265 kts | 259° |
| 2026-05-04 14:35 | 41.14777 | -99.51189 | 4612 ft | 266 kts | 259° |
| 2026-05-04 14:36 | 41.14303 | -99.53558 | 4618 ft | 266 kts | 259° |
| 2026-05-04 14:36 | 41.13827 | -99.55935 | 4634 ft | 267 kts | 259° |
| 2026-05-04 14:36 | 41.13357 | -99.58283 | 4607 ft | 266 kts | 259° |
| 2026-05-04 14:36 | 41.12872 | -99.60662 | 4629 ft | 269 kts | 259° |
| 2026-05-04 14:37 | 41.12389 | -99.63052 | 4612 ft | 268 kts | 259° |
| 2026-05-04 14:37 | 41.11907 | -99.65437 | 4620 ft | 268 kts | 259° |
| 2026-05-04 14:37 | 41.11420 | -99.67822 | 4619 ft | 268 kts | 258° |
| 2026-05-04 14:37 | 41.10927 | -99.70242 | 4618 ft | 268 kts | 259° |
| 2026-05-04 14:38 | 41.10437 | -99.72627 | 4616 ft | 267 kts | 258° |
| 2026-05-04 14:38 | 41.09950 | -99.74974 | 4629 ft | 268 kts | 258° |
| 2026-05-04 14:38 | 41.09455 | -99.77385 | 4621 ft | 268 kts | 258° |
| 2026-05-04 14:38 | 41.08975 | -99.79739 | 4627 ft | 268 kts | 258° |
| 2026-05-04 14:39 | 41.08488 | -99.82122 | 4624 ft | 268 kts | 259° |
| 2026-05-04 14:39 | 41.07992 | -99.84501 | 4625 ft | 268 kts | 258° |
| 2026-05-04 14:39 | 41.07498 | -99.86890 | 4645 ft | 269 kts | 259° |
| 2026-05-04 14:40 | 41.06510 | -99.91646 | 4637 ft | 267 kts | 258° |
| 2026-05-04 14:40 | 41.06020 | -99.94020 | 4625 ft | 266 kts | 258° |
| 2026-05-04 14:40 | 41.05535 | -99.96387 | 4637 ft | 268 kts | 258° |
| 2026-05-04 14:40 | 41.05045 | -99.98763 | 4628 ft | 268 kts | 258° |
| 2026-05-04 14:41 | 41.04556 | -100.01150 | 4628 ft | 269 kts | 258° |
| 2026-05-04 14:41 | 41.04069 | -100.03541 | 4635 ft | 268 kts | 258° |
| 2026-05-04 14:41 | 41.03079 | -100.08303 | 4650 ft | 269 kts | 258° |
| 2026-05-04 14:42 | 41.02082 | -100.13058 | 4627 ft | 268 kts | 258° |
| 2026-05-04 14:42 | 41.01597 | -100.15440 | 4617 ft | 267 kts | 258° |
| 2026-05-04 14:42 | 41.01098 | -100.17814 | 4622 ft | 268 kts | 258° |
| 2026-05-04 14:43 | 41.00596 | -100.20190 | 4623 ft | 269 kts | 257° |
| 2026-05-04 14:43 | 41.00098 | -100.22582 | 4630 ft | 269 kts | 258° |
| 2026-05-04 14:43 | 40.99599 | -100.24964 | 4629 ft | 269 kts | 257° |
| 2026-05-04 14:43 | 40.99096 | -100.27351 | 4634 ft | 269 kts | 257° |
| 2026-05-04 14:44 | 40.98601 | -100.29738 | 4636 ft | 269 kts | 258° |
| 2026-05-04 14:44 | 40.98117 | -100.32126 | 4643 ft | 268 kts | 258° |
| 2026-05-04 14:44 | 40.97610 | -100.34501 | 4650 ft | 269 kts | 257° |
| 2026-05-04 14:44 | 40.97223 | -100.36907 | 4645 ft | 266 kts | 268° |
| 2026-05-04 14:45 | 40.97367 | -100.39314 | 4651 ft | 261 kts | 288° |
| 2026-05-04 14:45 | 40.98092 | -100.41489 | 4663 ft | 259 kts | 303° |
| 2026-05-04 14:45 | 40.99130 | -100.43419 | 4669 ft | 257 kts | 309° |
| 2026-05-04 14:45 | 41.00212 | -100.45310 | 4667 ft | 258 kts | 308° |
| 2026-05-04 14:46 | 41.01282 | -100.47215 | 4672 ft | 258 kts | 308° |
| 2026-05-04 14:46 | 41.02350 | -100.49128 | 4678 ft | 258 kts | 308° |
| 2026-05-04 14:46 | 41.03408 | -100.51057 | 4680 ft | 260 kts | 306° |
| 2026-05-04 14:46 | 41.04441 | -100.53009 | 4689 ft | 255 kts | 307° |
| 2026-05-04 14:47 | 41.05447 | -100.54846 | 4697 ft | 235 kts | 308° |
| 2026-05-04 14:47 | 41.06377 | -100.56511 | 4653 ft | 217 kts | 308° |
| 2026-05-04 14:47 | 41.07261 | -100.58099 | 4379 ft | 213 kts | 307° |
| 2026-05-04 14:47 | 41.08118 | -100.59681 | 4128 ft | 208 kts | 307° |
| 2026-05-04 14:48 | 41.08945 | -100.61190 | 3838 ft | 194 kts | 307° |
| 2026-05-04 14:48 | 41.09697 | -100.62564 | 3572 ft | 173 kts | 306° |
| 2026-05-04 14:48 | 41.10370 | -100.63795 | 3342 ft | 157 kts | 307° |
| 2026-05-04 14:48 | 41.10996 | -100.64941 | 3133 ft | 151 kts | 306° |
| 2026-05-04 14:49 | 41.11593 | -100.66041 | 2899 ft | 143 kts | 305° |
| 2026-05-04 14:49 | 41.12159 | -100.67071 | 2786 ft | 135 kts | 306° |
| 2026-05-04 14:49 | 41.12548 | -100.67791 | 2781 ft | 73 kts | 305° |
| 2026-05-04 14:49 | 41.12811 | -100.68266 | 2789 ft | 58 kts | 307° |
| 2026-05-04 14:50 | 41.13011 | -100.68647 | 2790 ft | 39 kts | 306° |
| 2026-05-04 14:50 | 41.13166 | -100.68918 | 2787 ft | 30 kts | 307° |
| 2026-05-04 14:50 | 41.13141 | -100.69085 | 2787 ft | 19 kts | 219° |
| 2026-05-04 14:50 | 41.13109 | -100.69196 | 2789 ft | 12 kts | 271° |
| 2026-05-04 14:51 | 41.13111 | -100.69306 | 2788 ft | 12 kts | 271° |
| 2026-05-04 14:51 | 41.13113 | -100.69415 | 2791 ft | 12 kts | 271° |
| 2026-05-04 14:51 | 41.13123 | -100.69514 | 2783 ft | 10 kts | 301° |
| 2026-05-04 14:51 | 41.13143 | -100.69576 | 2790 ft | 0 kts | 274° |